Time;durP1;ratioP1;P1;durP2;ratioP2;P2;SDS_P1;SDS_P2;PMS_P1;PMS_P2;Temp;Humidity;BMP_temperature;BMP_pressure;BME280_temperature;BME280_humidity;BME280_pressure;Samples;Min_cycle;Max_cycle;Signal;HPM_P1;HPM_P2
2022/03/30 00:02:05;;;;;;;75.07;36.78;;;4.70;99.90;;;;;;4998163;28;20064;-67
2022/03/30 00:04:31;;;;;;;65.03;34.03;;;4.70;99.90;;;;;;5015756;28;20054;-67
2022/03/30 00:06:57;;;;;;;68.97;34.13;;;4.70;99.90;;;;;;5013836;28;20102;-67
2022/03/30 00:09:22;;;;;;;77.00;35.53;;;4.80;99.90;;;;;;5018352;28;20050;-67
2022/03/30 00:11:53;;;;;;;70.25;37.78;;;4.70;99.90;;;;;;5016958;28;20746;-67
2022/03/30 00:14:20;;;;;;;76.07;37.95;;;4.80;99.90;;;;;;5015950;28;20050;-68
2022/03/30 00:16:46;;;;;;;69.85;33.65;;;4.80;99.90;;;;;;5007905;28;20046;-67
2022/03/30 00:19:12;;;;;;;62.38;34.55;;;4.80;99.90;;;;;;5017632;28;20049;-66
2022/03/30 00:21:37;;;;;;;71.07;32.45;;;4.80;99.90;;;;;;5021995;28;20042;-67
2022/03/30 00:24:03;;;;;;;67.78;33.20;;;4.80;99.90;;;;;;5008639;28;20045;-67
2022/03/30 00:26:29;;;;;;;65.20;31.20;;;4.80;99.90;;;;;;5007621;28;20500;-68
2022/03/30 00:28:55;;;;;;;66.65;36.05;;;4.80;99.90;;;;;;5018733;28;20099;-67
2022/03/30 00:31:20;;;;;;;75.80;35.15;;;4.80;99.90;;;;;;5005352;28;20053;-67
2022/03/30 00:33:46;;;;;;;79.03;34.40;;;4.80;99.90;;;;;;5005625;28;20407;-67
2022/03/30 00:36:13;;;;;;;80.05;36.20;;;4.80;99.90;;;;;;5009599;28;20081;-67
2022/03/30 00:38:38;;;;;;;72.43;36.15;;;4.80;99.90;;;;;;5008189;28;20079;-68
2022/03/30 00:41:04;;;;;;;62.92;35.65;;;4.80;99.90;;;;;;5015378;28;20041;-67
2022/03/30 00:43:30;;;;;;;67.20;33.28;;;4.80;99.90;;;;;;5014415;28;20187;-67
2022/03/30 00:45:55;;;;;;;75.82;34.72;;;4.80;99.90;;;;;;5020007;28;20053;-67
2022/03/30 00:48:21;;;;;;;77.93;38.33;;;4.70;99.90;;;;;;5027758;28;20184;-67
2022/03/30 00:50:47;;;;;;;79.57;40.15;;;4.70;99.90;;;;;;5012145;28;20119;-67
2022/03/30 00:53:12;;;;;;;76.85;39.92;;;4.70;99.90;;;;;;5007292;28;20042;-67
2022/03/30 00:55:38;;;;;;;70.30;37.38;;;4.70;99.90;;;;;;5009440;28;20124;-67
2022/03/30 00:58:06;;;;;;;82.15;38.63;;;4.70;99.90;;;;;;5019576;28;20068;-67
2022/03/30 01:00:32;;;;;;;;;;;4.70;99.90;;;;;;5020982;28;20116;-67
2022/03/30 01:02:58;;;;;;;77.72;37.95;;;4.70;99.90;;;;;;5005566;28;20414;-67
2022/03/30 01:05:24;;;;;;;73.78;36.05;;;4.70;99.90;;;;;;4997234;28;20096;-67
2022/03/30 01:07:50;;;;;;;74.90;38.55;;;4.70;99.90;;;;;;5009250;28;20041;-67
2022/03/30 01:10:18;;;;;;;76.07;37.70;;;4.70;99.90;;;;;;4991000;28;20093;-67
2022/03/30 01:12:44;;;;;;;66.93;38.05;;;4.70;99.90;;;;;;5007024;28;20736;-67
2022/03/30 01:15:12;;;;;;;84.45;41.65;;;4.70;99.90;;;;;;5019714;28;20495;-67
2022/03/30 01:17:38;;;;;;;81.75;38.75;;;4.70;99.90;;;;;;5007992;28;20074;-66
2022/03/30 01:20:06;;;;;;;77.68;40.95;;;4.70;99.90;;;;;;5008523;28;20095;-66
2022/03/30 01:22:33;;;;;;;68.88;37.22;;;4.60;99.90;;;;;;5001428;28;20057;-67
2022/03/30 01:24:59;;;;;;;64.22;36.58;;;4.60;99.90;;;;;;5007175;28;20045;-67
2022/03/30 01:27:25;;;;;;;94.32;38.90;;;4.60;99.90;;;;;;5007999;28;20056;-67
2022/03/30 01:32:37;;;;;;;72.03;36.22;;;4.50;99.90;;;;;;5014652;28;20097;-67
2022/03/30 01:35:05;;;;;;;65.65;35.85;;;4.50;99.90;;;;;;5006263;28;20085;-67
2022/03/30 01:37:32;;;;;;;72.97;37.88;;;4.50;99.90;;;;;;5020913;28;20038;-67
2022/03/30 01:39:59;;;;;;;69.88;38.25;;;4.40;99.90;;;;;;5005850;28;20042;-66
2022/03/30 01:42:26;;;;;;;72.30;36.97;;;4.40;99.90;;;;;;5010968;28;20046;-67
2022/03/30 01:44:53;;;;;;;65.63;36.63;;;4.40;99.90;;;;;;5004232;28;20042;-67
2022/03/30 01:47:19;;;;;;;70.65;35.00;;;4.40;99.90;;;;;;5010227;28;20065;-67
2022/03/30 01:49:46;;;;;;;69.55;35.20;;;4.40;99.90;;;;;;5020606;28;20053;-68
2022/03/30 01:52:15;;;;;;;68.55;38.10;;;4.30;99.90;;;;;;5013192;28;20095;-67
2022/03/30 01:54:42;;;;;;;66.15;34.45;;;4.30;99.90;;;;;;5019171;28;20057;-67
2022/03/30 01:57:09;;;;;;;67.20;37.28;;;4.30;99.90;;;;;;5000570;28;20044;-67
2022/03/30 01:59:34;;;;;;;79.35;40.38;;;4.30;99.90;;;;;;4999080;28;20042;-67
2022/03/30 02:02:02;;;;;;;67.53;35.33;;;4.30;99.90;;;;;;5022649;28;20108;-67
2022/03/30 02:04:29;;;;;;;72.57;37.77;;;4.30;99.90;;;;;;5007147;28;20046;-67
2022/03/30 02:06:55;;;;;;;73.85;39.00;;;4.30;99.90;;;;;;5010407;28;20350;-67
2022/03/30 02:09:20;;;;;;;80.47;39.88;;;4.30;99.90;;;;;;5018602;28;20045;-67
2022/03/30 02:11:49;;;;;;;78.95;37.50;;;4.30;99.90;;;;;;5010036;28;20454;-67
2022/03/30 02:14:16;;;;;;;75.00;39.30;;;4.30;99.90;;;;;;5018659;28;20084;-67
2022/03/30 02:16:41;;;;;;;66.30;36.08;;;4.30;99.90;;;;;;5023342;28;20068;-67
2022/03/30 02:19:07;;;;;;;66.60;36.00;;;4.30;99.90;;;;;;5015292;28;20504;-67
2022/03/30 02:21:34;;;;;;;71.55;40.38;;;4.30;99.90;;;;;;5024131;28;20456;-66
2022/03/30 02:24:00;;;;;;;79.65;37.92;;;4.30;99.90;;;;;;5011545;28;20038;-67
2022/03/30 02:26:28;;;;;;;80.40;42.28;;;4.30;99.90;;;;;;5019123;28;20056;-67
2022/03/30 02:28:54;;;;;;;70.63;38.53;;;4.40;99.90;;;;;;5017799;28;20049;-66
2022/03/30 02:31:21;;;;;;;74.88;39.80;;;4.40;99.90;;;;;;5017464;28;20443;-67
2022/03/30 02:33:47;;;;;;;70.60;38.65;;;4.40;99.90;;;;;;5023355;28;20053;-66
2022/03/30 02:36:13;;;;;;;81.32;41.20;;;4.40;99.90;;;;;;5007743;28;20124;-66
2022/03/30 02:38:40;;;;;;;72.07;39.38;;;4.50;99.90;;;;;;5016375;28;20564;-67
2022/03/30 02:41:06;;;;;;;92.82;37.83;;;4.50;99.90;;;;;;5015408;28;20117;-67
2022/03/30 02:43:33;;;;;;;76.45;39.28;;;4.50;99.90;;;;;;5010828;28;20045;-67
2022/03/30 02:45:59;;;;;;;74.57;39.65;;;4.50;99.90;;;;;;5010485;28;20470;-67
2022/03/30 02:48:28;;;;;;;84.72;40.53;;;4.50;99.90;;;;;;5024071;28;20054;-67
2022/03/30 02:51:00;;;;;;;73.65;38.13;;;4.60;99.90;;;;;;5021736;28;20060;-67
2022/03/30 02:53:26;;;;;;;75.88;38.75;;;4.60;99.90;;;;;;4998514;28;20689;-67
2022/03/30 02:55:52;;;;;;;76.05;38.25;;;4.60;99.90;;;;;;5009747;28;20050;-67
2022/03/30 02:58:19;;;;;;;82.38;37.78;;;4.60;99.90;;;;;;5015623;28;20056;-67
2022/03/30 03:00:45;;;;;;;71.40;37.67;;;4.70;99.90;;;;;;5015164;28;20046;-67
2022/03/30 03:03:11;;;;;;;69.05;36.08;;;4.70;99.90;;;;;;5015048;28;20048;-67
2022/03/30 03:05:38;;;;;;;74.18;37.30;;;4.70;99.90;;;;;;5004396;28;20520;-67
2022/03/30 03:08:10;;;;;;;76.50;36.75;;;4.70;99.90;;;;;;5022147;28;20044;-66
2022/03/30 03:10:38;;;;;;;76.75;38.95;;;4.80;99.90;;;;;;5005034;28;20054;-67
2022/03/30 03:13:04;;;;;;;81.13;38.92;;;4.80;99.90;;;;;;5017679;28;20045;-67
2022/03/30 03:15:31;;;;;;;74.25;38.25;;;4.80;99.90;;;;;;5015610;28;20056;-67
2022/03/30 03:18:01;;;;;;;77.90;37.95;;;4.80;99.90;;;;;;5010891;28;20486;-67
2022/03/30 03:20:28;;;;;;;76.90;40.78;;;4.90;99.90;;;;;;5009353;28;20914;-68
2022/03/30 03:22:55;;;;;;;79.85;39.63;;;4.80;99.90;;;;;;5006029;28;20046;-67
2022/03/30 03:25:22;;;;;;;73.65;37.05;;;4.90;99.90;;;;;;5008618;28;20049;-67
2022/03/30 03:27:48;;;;;;;82.05;40.63;;;4.90;99.90;;;;;;5007954;28;20046;-67
2022/03/30 03:30:14;;;;;;;75.88;38.53;;;5.00;99.90;;;;;;5023374;28;20527;-67
2022/03/30 03:32:41;;;;;;;77.97;39.35;;;4.90;99.90;;;;;;5017261;28;20044;-67
2022/03/30 03:35:09;;;;;;;76.05;36.85;;;5.00;99.90;;;;;;4996836;28;20124;-67
2022/03/30 03:37:39;;;;;;;65.57;38.20;;;4.90;99.90;;;;;;5016359;28;20466;-68
2022/03/30 03:40:05;;;;;;;65.57;36.70;;;5.00;99.90;;;;;;4986834;28;20034;-67
2022/03/30 03:42:32;;;;;;;72.05;38.10;;;5.00;99.90;;;;;;5008291;28;20056;-68
2022/03/30 03:44:58;;;;;;;72.93;35.67;;;5.00;99.90;;;;;;5014797;28;20659;-68
2022/03/30 03:47:24;;;;;;;89.88;38.03;;;5.00;99.90;;;;;;5026614;28;20064;-67
2022/03/30 03:49:50;;;;;;;68.55;34.78;;;5.10;99.90;;;;;;5016996;28;20042;-67
2022/03/30 03:52:16;;;;;;;84.28;39.25;;;5.10;99.90;;;;;;5014146;28;20415;-67
2022/03/30 03:54:42;;;;;;;65.47;33.55;;;5.10;99.90;;;;;;5008663;28;20041;-67
2022/03/30 03:57:08;;;;;;;80.88;37.75;;;5.10;99.90;;;;;;5008685;28;20049;-67
2022/03/30 03:59:35;;;;;;;65.10;33.55;;;5.10;99.90;;;;;;5020587;28;20053;-68
2022/03/30 04:02:02;;;;;;;70.72;33.33;;;5.10;99.90;;;;;;5014421;28;20502;-67
2022/03/30 04:04:28;;;;;;;68.90;33.65;;;5.10;99.90;;;;;;5014881;28;20053;-68
2022/03/30 04:06:53;;;;;;;68.78;31.98;;;5.10;99.90;;;;;;5008019;28;20128;-67
2022/03/30 04:09:19;;;;;;;70.43;35.65;;;5.10;99.90;;;;;;5009440;28;20053;-67
2022/03/30 04:11:47;;;;;;;64.25;34.45;;;5.10;99.90;;;;;;5009945;28;20042;-67
2022/03/30 04:14:15;;;;;;;74.77;34.40;;;5.20;99.90;;;;;;5007519;28;20404;-67
2022/03/30 04:16:42;;;;;;;;;;;5.20;99.90;;;;;;5021813;28;20319;-67
2022/03/30 04:19:07;;;;;;;59.10;32.30;;;5.10;99.90;;;;;;5015279;28;19921;-67
2022/03/30 04:21:33;;;;;;;57.67;30.40;;;5.20;99.90;;;;;;5008585;28;20050;-67
2022/03/30 04:24:00;;;;;;;71.50;34.10;;;5.20;99.90;;;;;;5019416;28;20057;-67
2022/03/30 04:26:25;;;;;;;78.30;35.30;;;5.20;99.90;;;;;;5007604;28;20060;-68
2022/03/30 04:28:51;;;;;;;62.17;30.70;;;5.20;99.90;;;;;;5007686;28;20053;-67
2022/03/30 04:31:17;;;;;;;64.72;32.70;;;5.20;99.90;;;;;;4999912;28;20077;-67
2022/03/30 04:33:43;;;;;;;68.22;34.13;;;5.20;99.90;;;;;;4999588;28;20049;-66
2022/03/30 04:36:10;;;;;;;76.05;34.72;;;5.20;99.90;;;;;;5009947;28;20054;-66
2022/03/30 04:38:35;;;;;;;77.22;32.58;;;5.20;99.90;;;;;;5007816;28;20042;-66
2022/03/30 04:41:01;;;;;;;64.10;31.70;;;5.20;99.90;;;;;;5010840;28;20041;-67
2022/03/30 04:43:30;;;;;;;72.95;31.88;;;5.30;99.90;;;;;;5002749;28;20049;-67
2022/03/30 04:45:56;;;;;;;64.05;30.67;;;5.30;99.90;;;;;;4999322;28;20050;-67
2022/03/30 04:48:22;;;;;;;55.05;28.73;;;5.30;99.90;;;;;;5016406;28;20054;-67
2022/03/30 04:50:49;;;;;;;79.95;32.03;;;5.30;99.90;;;;;;5016243;28;20376;-68
2022/03/30 04:53:15;;;;;;;61.72;29.23;;;5.30;99.90;;;;;;5003549;28;20046;-67
2022/03/30 04:55:40;;;;;;;60.17;30.17;;;5.40;99.90;;;;;;5020940;28;20049;-67
2022/03/30 04:58:06;;;;;;;50.08;29.83;;;5.40;99.90;;;;;;5006083;28;20041;-66
2022/03/30 05:00:32;;;;;;;59.22;29.25;;;5.40;99.90;;;;;;5003426;28;20042;-67
2022/03/30 05:02:58;;;;;;;62.60;29.33;;;5.40;99.90;;;;;;5004999;28;20037;-67
2022/03/30 05:05:25;;;;;;;53.40;27.67;;;5.40;99.90;;;;;;5000668;28;20804;-67
2022/03/30 05:07:50;;;;;;;58.55;28.38;;;5.40;99.90;;;;;;5001563;28;20054;-67
2022/03/30 05:10:16;;;;;;;63.83;28.88;;;5.50;99.90;;;;;;5006583;28;20529;-67
2022/03/30 05:12:43;;;;;;;51.72;26.70;;;5.50;99.90;;;;;;5008134;28;20046;-67
2022/03/30 05:15:10;;;;;;;42.58;21.15;;;5.50;99.90;;;;;;5016157;28;20054;-67
2022/03/30 05:17:38;;;;;;;39.67;22.38;;;5.50;99.90;;;;;;5004136;28;20046;-68
2022/03/30 05:20:06;;;;;;;30.48;16.40;;;5.50;99.90;;;;;;5011152;28;20045;-68
2022/03/30 05:22:33;;;;;;;27.42;14.20;;;5.50;99.90;;;;;;5011988;28;20053;-68
2022/03/30 05:25:00;;;;;;;13.45;8.18;;;5.50;99.90;;;;;;5014866;28;20100;-67
2022/03/30 05:27:26;;;;;;;13.27;5.93;;;5.50;99.90;;;;;;5025959;28;20041;-67
2022/03/30 05:29:52;;;;;;;8.90;4.57;;;5.50;99.90;;;;;;5020877;28;20102;-67
2022/03/30 05:32:17;;;;;;;7.03;4.15;;;5.50;99.90;;;;;;5019938;28;20045;-67
2022/03/30 05:34:43;;;;;;;8.15;3.85;;;5.50;99.90;;;;;;5000144;28;20052;-67
2022/03/30 05:37:09;;;;;;;6.50;3.83;;;5.50;99.90;;;;;;5012736;28;20045;-67
2022/03/30 05:39:39;;;;;;;8.15;4.53;;;5.50;99.90;;;;;;5014644;28;20065;-68
2022/03/30 05:42:05;;;;;;;5.32;3.72;;;5.50;99.90;;;;;;5020483;28;20054;-67
2022/03/30 05:44:31;;;;;;;4.78;3.72;;;5.50;99.90;;;;;;5013054;28;20470;-67
2022/03/30 05:46:57;;;;;;;4.15;3.58;;;5.60;99.90;;;;;;5020682;28;20049;-67
2022/03/30 05:49:24;;;;;;;4.47;3.85;;;5.50;99.90;;;;;;5011359;28;20111;-67
2022/03/30 05:51:50;;;;;;;5.75;5.03;;;5.60;99.90;;;;;;5026930;28;20046;-67
2022/03/30 05:54:16;;;;;;;6.22;4.50;;;5.60;99.90;;;;;;5014592;28;20481;-68
2022/03/30 05:57:00;;;;;;;5.43;4.93;;;5.60;99.90;;;;;;5006974;28;20746;-69
2022/03/30 05:59:27;;;;;;;11.00;5.22;;;5.60;99.90;;;;;;5024250;28;20087;-68
2022/03/30 06:01:53;;;;;;;10.07;6.45;;;5.60;99.90;;;;;;5014985;28;20486;-68
2022/03/30 06:04:18;;;;;;;12.00;8.65;;;5.60;99.90;;;;;;5015067;28;20099;-68
2022/03/30 06:06:44;;;;;;;14.90;8.82;;;5.60;99.90;;;;;;5005558;28;20762;-68
2022/03/30 06:09:10;;;;;;;8.25;6.90;;;5.50;99.90;;;;;;5002100;28;20100;-68
2022/03/30 06:11:35;;;;;;;11.68;8.48;;;5.60;99.90;;;;;;5015646;28;20041;-68
2022/03/30 06:14:01;;;;;;;7.20;6.13;;;5.60;99.90;;;;;;5014335;28;20053;-67
2022/03/30 06:16:27;;;;;;;8.98;7.18;;;5.60;99.90;;;;;;5010123;28;20557;-67
2022/03/30 06:18:54;;;;;;;11.35;7.47;;;5.60;99.90;;;;;;5016720;28;21157;-69
2022/03/30 06:21:20;;;;;;;11.77;10.00;;;5.60;99.90;;;;;;4996411;28;20468;-69
2022/03/30 06:23:46;;;;;;;13.50;10.45;;;5.60;99.90;;;;;;5012897;28;20442;-69
2022/03/30 06:26:12;;;;;;;10.43;9.18;;;5.50;99.90;;;;;;5007240;28;20053;-69
2022/03/30 06:28:38;;;;;;;9.73;7.80;;;5.40;99.90;;;;;;5018418;28;20045;-68
2022/03/30 06:31:04;;;;;;;7.70;5.88;;;5.30;99.90;;;;;;5013315;28;20859;-68
2022/03/30 06:33:30;;;;;;;4.45;3.47;;;5.30;99.90;;;;;;4996500;28;20766;-69
2022/03/30 06:35:56;;;;;;;5.50;3.65;;;5.30;99.90;;;;;;5011348;28;20045;-69
2022/03/30 06:38:22;;;;;;;4.90;3.90;;;5.30;99.90;;;;;;5009101;28;20454;-68
2022/03/30 06:40:48;;;;;;;4.53;3.90;;;5.30;99.90;;;;;;5009106;28;20157;-70
2022/03/30 06:43:16;;;;;;;3.70;2.65;;;5.30;99.90;;;;;;5012642;28;20050;-69
2022/03/30 06:45:44;;;;;;;3.40;3.10;;;5.40;99.90;;;;;;5017241;28;20050;-69
2022/03/30 06:48:11;;;;;;;3.10;2.45;;;5.40;99.90;;;;;;5009674;28;20054;-69
2022/03/30 06:50:37;;;;;;;2.75;2.53;;;5.40;99.90;;;;;;5000334;28;20050;-69
2022/03/30 06:53:05;;;;;;;3.38;2.85;;;5.50;99.90;;;;;;5013180;28;20121;-68
2022/03/30 06:55:32;;;;;;;2.63;2.43;;;5.50;99.90;;;;;;5013459;28;20783;-68
2022/03/30 06:57:57;;;;;;;3.53;3.22;;;5.60;99.90;;;;;;5006253;28;21108;-68
2022/03/30 07:00:23;;;;;;;4.18;3.08;;;5.50;99.90;;;;;;5014755;28;20052;-68
2022/03/30 07:02:49;;;;;;;4.47;2.78;;;5.60;99.90;;;;;;5010740;28;20578;-68
2022/03/30 07:05:14;;;;;;;4.93;3.03;;;5.70;99.90;;;;;;5003008;28;20065;-68
2022/03/30 07:10:27;;;;;;;4.53;4.07;;;5.80;99.90;;;;;;5022526;28;20128;-68
2022/03/30 07:12:53;;;;;;;5.38;3.22;;;5.90;99.90;;;;;;5010773;28;20056;-69
2022/03/30 07:15:20;;;;;;;6.43;3.03;;;6.00;99.90;;;;;;5021992;28;20049;-68
2022/03/30 07:17:49;;;;;;;3.95;3.58;;;6.10;99.90;;;;;;5013765;28;20052;-68
2022/03/30 07:20:18;;;;;;;5.80;3.83;;;6.00;99.90;;;;;;5007681;28;20089;-69
2022/03/30 07:22:45;;;;;;;9.27;4.80;;;6.10;99.90;;;;;;5014432;28;20064;-67
2022/03/30 07:25:11;;;;;;;7.22;4.32;;;6.10;99.90;;;;;;5018244;28;20475;-68
2022/03/30 07:27:42;;;;;;;5.35;4.05;;;6.20;99.90;;;;;;5013770;28;20052;-69
2022/03/30 07:30:09;;;;;;;6.78;3.72;;;6.20;99.90;;;;;;5015368;28;20090;-67
2022/03/30 07:32:41;;;;;;;6.20;3.78;;;6.10;99.90;;;;;;5010722;28;20064;-68
2022/03/30 07:35:09;;;;;;;3.70;3.33;;;6.10;99.90;;;;;;5007991;28;20144;-68
2022/03/30 07:37:35;;;;;;;;;;;6.10;99.90;;;;;;5002286;28;20945;-68
2022/03/30 07:40:03;;;;;;;3.42;3.13;;;6.10;99.90;;;;;;5010374;28;19932;-69
2022/03/30 07:42:29;;;;;;;6.35;4.18;;;6.10;99.90;;;;;;5007167;28;20115;-68
2022/03/30 07:44:55;;;;;;;3.55;3.22;;;6.10;99.90;;;;;;5013279;28;20089;-68
2022/03/30 07:47:21;;;;;;;7.25;4.15;;;6.10;99.90;;;;;;5010335;28;20547;-69
2022/03/30 07:49:47;;;;;;;4.53;3.00;;;6.10;99.90;;;;;;5010766;28;20049;-67
2022/03/30 07:52:15;;;;;;;11.77;4.82;;;6.10;99.90;;;;;;5007484;28;20070;-67
2022/03/30 07:54:42;;;;;;;9.18;3.97;;;6.20;99.90;;;;;;5010868;28;20415;-68
2022/03/30 07:57:08;;;;;;;16.27;4.18;;;6.20;99.90;;;;;;5018733;28;20042;-69
2022/03/30 07:59:35;;;;;;;5.82;3.97;;;6.20;99.90;;;;;;5003799;28;20121;-68
2022/03/30 08:02:00;;;;;;;6.95;4.38;;;6.20;99.90;;;;;;5007849;28;20077;-68
2022/03/30 08:04:27;;;;;;;6.43;4.18;;;6.20;99.90;;;;;;5007523;28;20080;-66
2022/03/30 08:06:53;;;;;;;6.18;4.70;;;6.30;99.90;;;;;;5001170;28;20046;-67
2022/03/30 08:09:19;;;;;;;7.72;4.18;;;6.20;99.90;;;;;;5007160;28;20112;-67
2022/03/30 08:11:45;;;;;;;11.15;3.90;;;6.30;99.90;;;;;;5009617;28;20061;-68
2022/03/30 08:14:12;;;;;;;10.98;4.40;;;6.40;99.90;;;;;;5019043;28;20057;-67
2022/03/30 08:16:39;;;;;;;13.25;4.15;;;6.50;99.90;;;;;;5013166;28;20056;-68
2022/03/30 08:19:06;;;;;;;9.40;3.90;;;6.50;99.90;;;;;;5014918;28;20042;-67
2022/03/30 08:24:16;;;;;;;4.68;2.92;;;6.70;99.90;;;;;;5004966;28;20064;-67
2022/03/30 08:26:42;;;;;;;12.50;3.78;;;6.80;99.90;;;;;;5007288;28;20042;-69
2022/03/30 08:29:09;;;;;;;9.55;3.10;;;6.90;99.90;;;;;;5020391;28;20145;-68
2022/03/30 08:31:35;;;;;;;6.25;3.70;;;6.90;99.90;;;;;;5008092;28;20037;-68
2022/03/30 08:34:01;;;;;;;7.65;3.58;;;7.00;99.90;;;;;;4996963;28;20141;-67
2022/03/30 08:36:31;;;;;;;5.95;2.85;;;7.10;99.90;;;;;;5007966;28;20050;-67
2022/03/30 08:38:58;;;;;;;6.72;3.70;;;7.30;99.90;;;;;;5008476;28;20066;-67
2022/03/30 08:41:23;;;;;;;15.02;3.50;;;7.40;99.90;;;;;;5020434;28;20077;-67
2022/03/30 08:43:51;;;;;;;6.03;2.92;;;7.50;99.90;;;;;;5007425;28;20521;-67
2022/03/30 08:46:17;;;;;;;5.45;3.15;;;7.50;99.90;;;;;;5006238;28;20061;-69
2022/03/30 08:48:43;;;;;;;4.95;2.65;;;7.50;99.90;;;;;;5007027;28;20062;-68
2022/03/30 08:51:10;;;;;;;2.47;2.25;;;7.50;99.90;;;;;;5014170;28;20053;-68
2022/03/30 08:53:37;;;;;;;12.52;3.58;;;7.50;99.90;;;;;;4996388;28;20058;-67
2022/03/30 08:56:03;;;;;;;5.82;2.83;;;7.50;99.90;;;;;;5002400;28;20073;-67
2022/03/30 08:58:29;;;;;;;7.22;3.33;;;7.50;99.90;;;;;;5007035;28;20115;-70
2022/03/30 09:01:07;;;;;;;5.82;3.17;;;7.50;99.90;;;;;;5004167;28;20042;-69
2022/03/30 09:03:32;;;;;;;4.10;2.80;;;7.40;99.90;;;;;;5006974;28;20041;-69
2022/03/30 09:05:58;;;;;;;5.30;3.72;;;7.30;99.90;;;;;;5009928;28;20798;-69
2022/03/30 09:08:27;;;;;;;8.25;3.72;;;7.30;99.90;;;;;;5017333;28;20116;-69
2022/03/30 09:10:58;;;;;;;6.90;3.03;;;7.20;99.90;;;;;;5011407;28;20050;-68
2022/03/30 09:13:24;;;;;;;6.90;3.78;;;7.20;99.90;;;;;;5018601;28;20507;-69
2022/03/30 09:15:51;;;;;;;3.97;3.40;;;7.20;99.90;;;;;;4998745;28;20520;-68
2022/03/30 09:18:18;;;;;;;7.53;4.05;;;7.10;99.90;;;;;;5008104;28;20052;-68
2022/03/30 09:20:51;;;;;;;7.90;4.35;;;7.20;99.90;;;;;;5003967;28;20053;-68
2022/03/30 09:23:17;;;;;;;13.02;4.45;;;7.30;99.90;;;;;;5007196;28;20053;-68
2022/03/30 09:25:45;;;;;;;6.38;3.70;;;7.40;99.90;;;;;;5014210;28;20061;-68
2022/03/30 09:28:11;;;;;;;10.20;4.05;;;7.30;99.90;;;;;;5006661;28;20515;-68
2022/03/30 09:30:37;;;;;;;7.75;4.55;;;7.30;99.90;;;;;;5005311;28;20049;-68
2022/03/30 09:33:07;;;;;;;8.38;4.00;;;7.40;99.90;;;;;;5012448;28;20120;-68
2022/03/30 09:35:38;;;;;;;14.77;4.28;;;7.40;99.90;;;;;;5014162;28;20057;-69
2022/03/30 09:38:15;;;;;;;5.43;3.20;;;7.30;99.90;;;;;;5010790;28;20045;-68
2022/03/30 09:40:58;;;;;;;8.93;3.17;;;7.30;99.90;;;;;;5009108;28;20050;-68
2022/03/30 09:43:35;;;;;;;8.27;4.15;;;7.20;99.90;;;;;;5007035;28;20372;-68
2022/03/30 09:46:09;;;;;;;5.60;3.33;;;7.30;99.90;;;;;;5019554;28;20053;-68
2022/03/30 09:48:49;;;;;;;9.13;3.83;;;7.20;99.90;;;;;;5001090;28;20054;-68
2022/03/30 09:51:17;;;;;;;7.20;4.18;;;7.10;99.90;;;;;;4997907;28;20054;-70
2022/03/30 09:53:43;;;;;;;9.90;3.72;;;7.10;99.90;;;;;;5015337;28;20124;-68
2022/03/30 09:56:14;;;;;;;7.78;3.70;;;6.90;99.90;;;;;;5013859;28;20117;-68
2022/03/30 09:58:41;;;;;;;6.32;3.45;;;6.80;99.90;;;;;;5010776;28;20041;-68
2022/03/30 10:01:11;;;;;;;14.18;4.20;;;6.70;99.90;;;;;;5016137;28;20079;-68
2022/03/30 10:03:42;;;;;;;5.85;3.90;;;6.60;99.90;;;;;;5018366;28;20049;-67
2022/03/30 10:06:11;;;;;;;7.95;3.20;;;6.70;99.90;;;;;;5007333;28;20526;-67
2022/03/30 10:08:42;;;;;;;8.60;3.95;;;6.70;99.90;;;;;;5004920;28;20380;-68
2022/03/30 10:11:10;;;;;;;6.97;3.28;;;6.80;99.90;;;;;;5010872;28;20045;-68
2022/03/30 10:13:37;;;;;;;7.20;3.45;;;7.00;99.90;;;;;;5007195;28;20046;-67
2022/03/30 10:16:08;;;;;;;4.78;3.38;;;7.40;99.90;;;;;;5009267;28;20137;-67
2022/03/30 10:18:35;;;;;;;4.05;3.53;;;7.60;99.90;;;;;;5004037;28;20495;-68
2022/03/30 10:21:34;;;;;;;6.80;3.45;;;7.80;99.90;;;;;;5011029;28;20045;-69
2022/03/30 10:24:13;;;;;;;3.90;2.75;;;8.00;99.90;;;;;;5004687;28;20061;-69
2022/03/30 10:27:06;;;;;;;3.08;2.17;;;8.10;99.90;;;;;;5010170;28;20406;-69
2022/03/30 10:29:35;;;;;;;3.97;2.53;;;8.30;99.90;;;;;;4994976;28;20053;-68
2022/03/30 10:32:17;;;;;;;7.97;2.97;;;8.30;99.90;;;;;;5005379;28;20636;-67
2022/03/30 10:35:00;;;;;;;3.47;2.50;;;8.30;99.90;;;;;;5007051;28;20046;-69
2022/03/30 10:37:28;;;;;;;6.20;2.88;;;8.30;99.90;;;;;;5006982;28;20045;-68
2022/03/30 10:40:15;;;;;;;9.15;2.75;;;8.40;99.90;;;;;;5010312;28;20046;-68
2022/03/30 10:42:47;;;;;;;6.70;3.22;;;8.40;99.90;;;;;;4999337;28;20054;-69
2022/03/30 10:45:28;;;;;;;4.25;2.60;;;8.50;99.90;;;;;;5001873;28;20048;-68
2022/03/30 10:48:12;;;;;;;3.85;2.45;;;8.40;99.90;;;;;;5007414;28;20736;-68
2022/03/30 10:50:59;;;;;;;5.90;2.45;;;8.30;99.90;;;;;;4999403;28;20037;-68
2022/03/30 10:53:34;;;;;;;5.45;3.17;;;8.30;99.90;;;;;;5013489;28;20089;-68
2022/03/30 10:56:09;;;;;;;4.10;2.47;;;8.40;99.90;;;;;;5022454;28;20097;-68
2022/03/30 10:59:00;;;;;;;7.03;2.58;;;8.40;99.90;;;;;;5004178;28;20084;-68
2022/03/30 11:01:38;;;;;;;13.57;3.60;;;8.40;99.90;;;;;;5000309;28;20046;-67
2022/03/30 11:04:17;;;;;;;7.47;2.72;;;8.40;99.90;;;;;;5010692;28;20157;-67
2022/03/30 11:06:49;;;;;;;5.10;2.55;;;8.50;99.90;;;;;;5009402;28;20076;-67
2022/03/30 11:09:28;;;;;;;4.80;2.75;;;8.50;99.90;;;;;;5006855;28;20534;-67
2022/03/30 11:12:05;;;;;;;6.38;3.15;;;8.50;99.90;;;;;;5007462;28;20131;-68
2022/03/30 11:14:39;;;;;;;7.40;3.13;;;8.50;99.90;;;;;;5003507;28;20060;-68
2022/03/30 11:17:09;;;;;;;7.25;3.28;;;8.60;99.90;;;;;;5003799;28;20050;-68
2022/03/30 11:19:54;;;;;;;4.75;2.97;;;8.50;99.90;;;;;;4999875;28;20858;-68
2022/03/30 11:22:23;;;;;;;6.60;2.88;;;8.40;99.90;;;;;;5007312;28;20860;-68
2022/03/30 11:25:18;;;;;;;12.25;3.67;;;8.50;99.90;;;;;;5006106;28;20038;-68
2022/03/30 11:28:04;;;;;;;5.85;2.67;;;8.50;99.90;;;;;;5017024;28;20048;-68
2022/03/30 11:30:32;;;;;;;4.43;2.67;;;8.40;99.90;;;;;;5008958;28;20046;-71
2022/03/30 11:33:01;;;;;;;8.80;3.03;;;8.40;99.90;;;;;;5009006;28;20056;-69
2022/03/30 11:35:30;;;;;;;9.07;2.92;;;8.50;99.90;;;;;;5002030;28;20132;-68
2022/03/30 11:38:07;;;;;;;6.57;2.90;;;8.30;99.90;;;;;;5015261;28;20053;-68
2022/03/30 11:40:42;;;;;;;7.75;3.03;;;8.40;99.90;;;;;;5009930;28;20081;-68
2022/03/30 11:43:09;;;;;;;6.38;2.45;;;8.50;99.90;;;;;;4987988;28;20061;-68
2022/03/30 11:45:35;;;;;;;26.27;3.65;;;8.50;99.90;;;;;;5006273;28;20422;-69
2022/03/30 11:48:07;;;;;;;6.57;2.80;;;8.50;99.90;;;;;;5007713;28;20079;-68
2022/03/30 11:50:47;;;;;;;6.25;2.92;;;8.50;99.90;;;;;;5007615;28;20078;-69
2022/03/30 11:53:18;;;;;;;11.63;2.90;;;8.50;99.90;;;;;;4996828;28;20058;-69
2022/03/30 11:55:51;;;;;;;5.65;2.22;;;8.60;99.90;;;;;;5007896;28;20049;-69
2022/03/30 11:58:26;;;;;;;4.90;2.55;;;8.50;99.90;;;;;;5008479;28;20057;-67
2022/03/30 12:00:53;;;;;;;4.72;2.70;;;8.60;99.00;;;;;;4998808;28;20133;-69
2022/03/30 12:03:19;;;;;;;6.78;2.88;;;8.70;99.90;;;;;;5007433;28;20049;-69
2022/03/30 12:05:46;;;;;;;6.40;3.15;;;8.70;99.90;;;;;;5008020;28;20108;-68
2022/03/30 12:08:12;;;;;;;5.88;2.67;;;8.60;99.90;;;;;;5005692;28;20408;-68
2022/03/30 12:10:38;;;;;;;3.22;2.60;;;8.70;99.20;;;;;;5002220;28;20066;-69
2022/03/30 12:13:04;;;;;;;4.85;3.33;;;8.60;97.00;;;;;;4990789;28;20038;-67
2022/03/30 12:15:30;;;;;;;4.18;3.33;;;8.60;96.00;;;;;;5007602;28;20054;-68
2022/03/30 12:17:58;;;;;;;5.60;3.05;;;8.50;96.40;;;;;;5004518;28;20049;-68
2022/03/30 12:20:23;;;;;;;5.95;2.90;;;8.60;95.90;;;;;;5007004;28;20049;-69
2022/03/30 12:23:01;;;;;;;8.20;3.22;;;8.60;95.20;;;;;;5008361;28;20053;-69
2022/03/30 12:25:37;;;;;;;8.20;3.28;;;8.70;95.10;;;;;;5002922;28;20054;-69
2022/03/30 12:28:04;;;;;;;15.65;3.22;;;8.70;95.80;;;;;;5014668;28;20089;-68
2022/03/30 12:30:33;;;;;;;5.47;3.08;;;8.60;95.10;;;;;;5006663;28;20631;-69
2022/03/30 12:32:59;;;;;;;5.30;3.38;;;8.50;94.60;;;;;;5006691;28;20050;-68
2022/03/30 12:35:31;;;;;;;6.18;2.92;;;8.70;95.50;;;;;;5006751;28;20117;-69
2022/03/30 12:38:11;;;;;;;12.38;3.88;;;8.70;94.50;;;;;;5004512;28;20497;-69
2022/03/30 12:40:43;;;;;;;7.13;2.97;;;8.70;92.90;;;;;;5000883;28;20133;-68
2022/03/30 12:43:09;;;;;;;8.82;3.30;;;8.60;92.90;;;;;;5020016;28;20049;-68
2022/03/30 12:45:54;;;;;;;4.43;3.22;;;8.60;92.90;;;;;;5007910;28;20108;-69
2022/03/30 12:48:34;;;;;;;4.70;3.50;;;8.50;91.90;;;;;;4999575;28;20057;-69
2022/03/30 12:51:02;;;;;;;8.30;4.65;;;8.40;90.40;;;;;;5009692;28;20524;-69
2022/03/30 12:53:39;;;;;;;4.30;3.17;;;8.40;93.20;;;;;;5007703;28;20454;-69
2022/03/30 12:56:13;;;;;;;5.72;3.42;;;8.30;92.80;;;;;;5006637;28;20219;-69
2022/03/30 12:58:56;;;;;;;4.70;3.35;;;8.30;92.50;;;;;;4992377;28;20074;-68
2022/03/30 13:01:39;;;;;;;6.75;3.42;;;8.30;91.50;;;;;;5005892;28;20045;-69
2022/03/30 13:04:19;;;;;;;14.65;3.47;;;8.30;93.00;;;;;;5015008;28;20060;-70